sensor_id;sensor_type;location;lat;lon;timestamp;temperature;humidity
4637;DHT22;2331;48.806;9.140;2023-03-01T00:00:48;2.30;1.00
4637;DHT22;2331;48.806;9.140;2023-03-01T00:03:15;2.30;1.00
4637;DHT22;2331;48.806;9.140;2023-03-01T00:05:44;2.20;1.00
4637;DHT22;2331;48.806;9.140;2023-03-01T00:08:12;2.20;1.00
4637;DHT22;2331;48.806;9.140;2023-03-01T00:10:39;2.20;1.00
4637;DHT22;2331;48.806;9.140;2023-03-01T00:13:05;2.10;1.00
4637;DHT22;2331;48.806;9.140;2023-03-01T00:15:32;2.10;1.00
4637;DHT22;2331;48.806;9.140;2023-03-01T00:18:00;2.10;1.00
4637;DHT22;2331;48.806;9.140;2023-03-01T00:20:26;2.00;1.00
4637;DHT22;2331;48.806;9.140;2023-03-01T00:22:53;2.10;1.00
4637;DHT22;2331;48.806;9.140;2023-03-01T00:25:21;2.10;1.00
4637;DHT22;2331;48.806;9.140;2023-03-01T00:27:48;2.00;1.00
4637;DHT22;2331;48.806;9.140;2023-03-01T00:30:15;2.00;1.00
4637;DHT22;2331;48.806;9.140;2023-03-01T00:32:42;2.00;1.00
4637;DHT22;2331;48.806;9.140;2023-03-01T00:35:09;1.90;1.00
4637;DHT22;2331;48.806;9.140;2023-03-01T00:37:35;2.00;1.00
4637;DHT22;2331;48.806;9.140;2023-03-01T00:40:02;1.90;1.00
4637;DHT22;2331;48.806;9.140;2023-03-01T00:42:32;1.90;1.00
4637;DHT22;2331;48.806;9.140;2023-03-01T00:44:59;1.90;1.00
4637;DHT22;2331;48.806;9.140;2023-03-01T00:47:28;1.90;1.00
4637;DHT22;2331;48.806;9.140;2023-03-01T00:49:55;1.90;1.00
4637;DHT22;2331;48.806;9.140;2023-03-01T00:52:22;1.80;1.00
4637;DHT22;2331;48.806;9.140;2023-03-01T00:54:52;1.80;1.00
4637;DHT22;2331;48.806;9.140;2023-03-01T00:57:19;1.80;1.00
4637;DHT22;2331;48.806;9.140;2023-03-01T00:59:47;1.80;1.00
4637;DHT22;2331;48.806;9.140;2023-03-01T01:02:13;1.70;1.00
4637;DHT22;2331;48.806;9.140;2023-03-01T01:04:40;1.80;1.00
4637;DHT22;2331;48.806;9.140;2023-03-01T01:07:07;1.70;1.00
4637;DHT22;2331;48.806;9.140;2023-03-01T01:09:34;1.70;1.00
4637;DHT22;2331;48.806;9.140;2023-03-01T01:12:01;1.60;1.00
4637;DHT22;2331;48.806;9.140;2023-03-01T01:14:27;1.60;1.00
4637;DHT22;2331;48.806;9.140;2023-03-01T01:16:55;1.60;1.00
4637;DHT22;2331;48.806;9.140;2023-03-01T01:19:23;1.60;1.00
4637;DHT22;2331;48.806;9.140;2023-03-01T01:21:50;1.60;1.00
4637;DHT22;2331;48.806;9.140;2023-03-01T01:24:17;1.60;1.00
4637;DHT22;2331;48.806;9.140;2023-03-01T01:26:45;1.50;1.00
4637;DHT22;2331;48.806;9.140;2023-03-01T01:29:12;1.50;1.00
4637;DHT22;2331;48.806;9.140;2023-03-01T01:31:40;1.50;1.00
4637;DHT22;2331;48.806;9.140;2023-03-01T01:34:13;1.50;1.00
4637;DHT22;2331;48.806;9.140;2023-03-01T01:36:40;1.50;1.00
4637;DHT22;2331;48.806;9.140;2023-03-01T01:39:07;1.40;1.00
4637;DHT22;2331;48.806;9.140;2023-03-01T01:41:39;1.40;1.00
4637;DHT22;2331;48.806;9.140;2023-03-01T01:44:15;1.50;1.00
4637;DHT22;2331;48.806;9.140;2023-03-01T01:46:45;1.40;1.00
4637;DHT22;2331;48.806;9.140;2023-03-01T01:49:22;1.50;1.00
4637;DHT22;2331;48.806;9.140;2023-03-01T01:51:57;1.50;1.00
4637;DHT22;2331;48.806;9.140;2023-03-01T01:54:27;1.40;1.00
4637;DHT22;2331;48.806;9.140;2023-03-01T01:56:59;1.40;1.00
4637;DHT22;2331;48.806;9.140;2023-03-01T01:59:28;1.40;1.00
4637;DHT22;2331;48.806;9.140;2023-03-01T02:01:58;1.40;1.00
4637;DHT22;2331;48.806;9.140;2023-03-01T02:04:28;1.40;1.00
4637;DHT22;2331;48.806;9.140;2023-03-01T02:06:58;1.40;1.00
4637;DHT22;2331;48.806;9.140;2023-03-01T02:09:27;1.40;1.00
4637;DHT22;2331;48.806;9.140;2023-03-01T02:11:54;1.40;1.00
4637;DHT22;2331;48.806;9.140;2023-03-01T02:14:21;1.40;1.00
4637;DHT22;2331;48.806;9.140;2023-03-01T02:16:48;1.30;1.00
4637;DHT22;2331;48.806;9.140;2023-03-01T02:19:24;1.30;1.00
4637;DHT22;2331;48.806;9.140;2023-03-01T02:22:02;1.30;1.00
4637;DHT22;2331;48.806;9.140;2023-03-01T02:24:38;1.30;1.00
4637;DHT22;2331;48.806;9.140;2023-03-01T02:27:07;1.30;1.00
4637;DHT22;2331;48.806;9.140;2023-03-01T02:29:35;1.30;1.00
4637;DHT22;2331;48.806;9.140;2023-03-01T02:32:02;1.30;1.00
4637;DHT22;2331;48.806;9.140;2023-03-01T02:34:31;1.30;1.00
4637;DHT22;2331;48.806;9.140;2023-03-01T02:37:02;1.30;1.00
4637;DHT22;2331;48.806;9.140;2023-03-01T02:39:32;1.20;1.00
4637;DHT22;2331;48.806;9.140;2023-03-01T02:42:01;1.20;1.00
4637;DHT22;2331;48.806;9.140;2023-03-01T02:44:29;1.30;1.00
4637;DHT22;2331;48.806;9.140;2023-03-01T02:46:58;1.30;1.00
4637;DHT22;2331;48.806;9.140;2023-03-01T02:49:29;1.30;1.00
4637;DHT22;2331;48.806;9.140;2023-03-01T02:52:12;1.40;1.00
4637;DHT22;2331;48.806;9.140;2023-03-01T02:54:44;1.30;1.00
4637;DHT22;2331;48.806;9.140;2023-03-01T02:57:13;1.30;1.00
4637;DHT22;2331;48.806;9.140;2023-03-01T02:59:41;1.40;1.00
4637;DHT22;2331;48.806;9.140;2023-03-01T03:02:19;1.50;1.00
4637;DHT22;2331;48.806;9.140;2023-03-01T03:05:02;1.40;1.00
4637;DHT22;2331;48.806;9.140;2023-03-01T03:07:32;1.50;1.00
4637;DHT22;2331;48.806;9.140;2023-03-01T03:10:00;1.50;1.00
4637;DHT22;2331;48.806;9.140;2023-03-01T03:12:26;1.50;1.00
4637;DHT22;2331;48.806;9.140;2023-03-01T03:14:53;1.50;1.00
4637;DHT22;2331;48.806;9.140;2023-03-01T03:17:21;1.60;1.00
4637;DHT22;2331;48.806;9.140;2023-03-01T03:19:48;1.50;1.00
4637;DHT22;2331;48.806;9.140;2023-03-01T03:22:15;1.40;1.00
4637;DHT22;2331;48.806;9.140;2023-03-01T03:24:41;1.40;1.00
4637;DHT22;2331;48.806;9.140;2023-03-01T03:27:08;1.40;1.00
4637;DHT22;2331;48.806;9.140;2023-03-01T03:29:35;1.40;1.00
4637;DHT22;2331;48.806;9.140;2023-03-01T03:32:02;1.50;1.00
4637;DHT22;2331;48.806;9.140;2023-03-01T03:34:30;1.50;1.00
4637;DHT22;2331;48.806;9.140;2023-03-01T03:36:57;1.50;1.00
4637;DHT22;2331;48.806;9.140;2023-03-01T03:39:25;1.50;1.00
4637;DHT22;2331;48.806;9.140;2023-03-01T03:41:53;1.50;1.00
4637;DHT22;2331;48.806;9.140;2023-03-01T03:44:19;1.50;1.00
4637;DHT22;2331;48.806;9.140;2023-03-01T03:46:46;1.50;1.00
4637;DHT22;2331;48.806;9.140;2023-03-01T03:49:13;1.40;1.00
4637;DHT22;2331;48.806;9.140;2023-03-01T03:51:41;1.50;1.00
4637;DHT22;2331;48.806;9.140;2023-03-01T03:54:08;1.60;1.00
4637;DHT22;2331;48.806;9.140;2023-03-01T03:56:34;1.60;1.00
4637;DHT22;2331;48.806;9.140;2023-03-01T03:59:01;1.60;1.00
4637;DHT22;2331;48.806;9.140;2023-03-01T04:01:28;1.70;1.00
4637;DHT22;2331;48.806;9.140;2023-03-01T04:03:54;1.70;1.00
4637;DHT22;2331;48.806;9.140;2023-03-01T04:06:21;1.70;1.00
4637;DHT22;2331;48.806;9.140;2023-03-01T04:08:49;1.70;1.00
4637;DHT22;2331;48.806;9.140;2023-03-01T04:11:23;1.70;1.00
4637;DHT22;2331;48.806;9.140;2023-03-01T04:13:54;1.70;1.00
4637;DHT22;2331;48.806;9.140;2023-03-01T04:16:21;1.70;1.00
4637;DHT22;2331;48.806;9.140;2023-03-01T04:18:48;1.70;1.00
4637;DHT22;2331;48.806;9.140;2023-03-01T04:21:15;1.70;1.00
4637;DHT22;2331;48.806;9.140;2023-03-01T04:23:42;1.80;1.00
4637;DHT22;2331;48.806;9.140;2023-03-01T04:26:10;1.80;1.00
4637;DHT22;2331;48.806;9.140;2023-03-01T04:28:38;1.80;1.00
4637;DHT22;2331;48.806;9.140;2023-03-01T04:31:10;1.90;1.00
4637;DHT22;2331;48.806;9.140;2023-03-01T04:33:39;1.90;1.00
4637;DHT22;2331;48.806;9.140;2023-03-01T04:36:08;2.00;1.00
4637;DHT22;2331;48.806;9.140;2023-03-01T04:38:35;2.00;1.00
4637;DHT22;2331;48.806;9.140;2023-03-01T04:41:02;2.00;1.00
4637;DHT22;2331;48.806;9.140;2023-03-01T04:43:30;2.10;1.00
4637;DHT22;2331;48.806;9.140;2023-03-01T04:46:00;2.10;1.00
4637;DHT22;2331;48.806;9.140;2023-03-01T04:48:28;2.10;1.00
4637;DHT22;2331;48.806;9.140;2023-03-01T04:50:55;2.10;1.00
4637;DHT22;2331;48.806;9.140;2023-03-01T04:53:21;2.20;1.00
4637;DHT22;2331;48.806;9.140;2023-03-01T04:55:48;2.20;1.00
4637;DHT22;2331;48.806;9.140;2023-03-01T04:58:15;2.20;1.00
4637;DHT22;2331;48.806;9.140;2023-03-01T05:00:43;2.20;1.00
4637;DHT22;2331;48.806;9.140;2023-03-01T05:03:09;2.10;1.00
4637;DHT22;2331;48.806;9.140;2023-03-01T05:05:37;2.20;1.00
4637;DHT22;2331;48.806;9.140;2023-03-01T05:08:05;2.20;1.00
4637;DHT22;2331;48.806;9.140;2023-03-01T05:10:33;2.20;1.00
4637;DHT22;2331;48.806;9.140;2023-03-01T05:13:02;2.20;1.00
4637;DHT22;2331;48.806;9.140;2023-03-01T05:15:30;2.20;1.00
4637;DHT22;2331;48.806;9.140;2023-03-01T05:18:00;2.10;1.00
4637;DHT22;2331;48.806;9.140;2023-03-01T05:20:27;2.10;1.00
4637;DHT22;2331;48.806;9.140;2023-03-01T05:22:56;2.20;1.00
4637;DHT22;2331;48.806;9.140;2023-03-01T05:25:24;2.10;1.00
4637;DHT22;2331;48.806;9.140;2023-03-01T05:27:50;2.20;1.00
4637;DHT22;2331;48.806;9.140;2023-03-01T05:30:18;2.20;1.00
4637;DHT22;2331;48.806;9.140;2023-03-01T05:32:46;2.20;1.00
4637;DHT22;2331;48.806;9.140;2023-03-01T05:35:16;2.30;1.00
4637;DHT22;2331;48.806;9.140;2023-03-01T05:37:44;2.30;1.00
4637;DHT22;2331;48.806;9.140;2023-03-01T05:40:12;2.40;1.00
4637;DHT22;2331;48.806;9.140;2023-03-01T05:42:43;2.40;1.00
4637;DHT22;2331;48.806;9.140;2023-03-01T05:45:11;2.40;1.00
4637;DHT22;2331;48.806;9.140;2023-03-01T05:47:39;2.40;1.00
4637;DHT22;2331;48.806;9.140;2023-03-01T05:50:11;2.40;1.00
4637;DHT22;2331;48.806;9.140;2023-03-01T05:52:39;2.40;1.00
4637;DHT22;2331;48.806;9.140;2023-03-01T05:55:06;2.30;1.00
4637;DHT22;2331;48.806;9.140;2023-03-01T05:57:33;2.30;1.00
4637;DHT22;2331;48.806;9.140;2023-03-01T06:00:00;2.40;1.00
4637;DHT22;2331;48.806;9.140;2023-03-01T06:02:26;2.30;1.00
4637;DHT22;2331;48.806;9.140;2023-03-01T06:04:54;2.40;1.00
4637;DHT22;2331;48.806;9.140;2023-03-01T06:07:21;2.30;1.00
4637;DHT22;2331;48.806;9.140;2023-03-01T06:09:49;2.30;1.00
4637;DHT22;2331;48.806;9.140;2023-03-01T06:12:15;2.30;1.00
4637;DHT22;2331;48.806;9.140;2023-03-01T06:14:42;2.30;1.00
4637;DHT22;2331;48.806;9.140;2023-03-01T06:17:09;2.40;1.00
4637;DHT22;2331;48.806;9.140;2023-03-01T06:19:36;2.30;1.00
4637;DHT22;2331;48.806;9.140;2023-03-01T06:22:02;2.30;1.00
4637;DHT22;2331;48.806;9.140;2023-03-01T06:24:29;2.30;1.00
4637;DHT22;2331;48.806;9.140;2023-03-01T06:26:57;2.20;1.00
4637;DHT22;2331;48.806;9.140;2023-03-01T06:29:24;2.10;1.00
4637;DHT22;2331;48.806;9.140;2023-03-01T06:31:50;2.10;1.00
4637;DHT22;2331;48.806;9.140;2023-03-01T06:34:17;2.10;1.00
4637;DHT22;2331;48.806;9.140;2023-03-01T06:36:44;2.20;1.00
4637;DHT22;2331;48.806;9.140;2023-03-01T06:39:11;2.10;1.00
4637;DHT22;2331;48.806;9.140;2023-03-01T06:41:37;2.10;1.00
4637;DHT22;2331;48.806;9.140;2023-03-01T06:44:05;2.20;1.00
4637;DHT22;2331;48.806;9.140;2023-03-01T06:46:32;2.20;1.00
4637;DHT22;2331;48.806;9.140;2023-03-01T06:48:59;2.20;1.00
4637;DHT22;2331;48.806;9.140;2023-03-01T06:51:25;2.30;1.00
4637;DHT22;2331;48.806;9.140;2023-03-01T06:53:52;2.40;1.00
4637;DHT22;2331;48.806;9.140;2023-03-01T06:56:19;2.50;1.00
4637;DHT22;2331;48.806;9.140;2023-03-01T06:58:45;2.50;1.00
4637;DHT22;2331;48.806;9.140;2023-03-01T07:01:14;2.50;1.00
4637;DHT22;2331;48.806;9.140;2023-03-01T07:03:40;2.40;1.00
4637;DHT22;2331;48.806;9.140;2023-03-01T07:06:09;2.30;1.00
4637;DHT22;2331;48.806;9.140;2023-03-01T07:08:36;2.40;1.00
4637;DHT22;2331;48.806;9.140;2023-03-01T07:11:03;2.40;1.00
4637;DHT22;2331;48.806;9.140;2023-03-01T07:13:29;2.40;1.00
4637;DHT22;2331;48.806;9.140;2023-03-01T07:15:58;2.40;1.00
4637;DHT22;2331;48.806;9.140;2023-03-01T07:18:26;2.40;1.00
4637;DHT22;2331;48.806;9.140;2023-03-01T07:20:53;2.50;1.00
4637;DHT22;2331;48.806;9.140;2023-03-01T07:23:20;2.50;1.00
4637;DHT22;2331;48.806;9.140;2023-03-01T07:25:54;2.60;1.00
4637;DHT22;2331;48.806;9.140;2023-03-01T07:28:22;2.50;1.00
4637;DHT22;2331;48.806;9.140;2023-03-01T07:30:49;2.50;1.00
4637;DHT22;2331;48.806;9.140;2023-03-01T07:33:16;2.50;1.00
4637;DHT22;2331;48.806;9.140;2023-03-01T07:35:47;2.40;1.00
4637;DHT22;2331;48.806;9.140;2023-03-01T07:38:14;2.50;1.00
4637;DHT22;2331;48.806;9.140;2023-03-01T07:40:40;2.50;1.00
4637;DHT22;2331;48.806;9.140;2023-03-01T07:43:07;2.50;1.00
4637;DHT22;2331;48.806;9.140;2023-03-01T07:45:34;2.50;1.00
4637;DHT22;2331;48.806;9.140;2023-03-01T07:48:00;2.50;1.00
4637;DHT22;2331;48.806;9.140;2023-03-01T07:50:27;2.60;1.00
4637;DHT22;2331;48.806;9.140;2023-03-01T07:52:55;2.60;1.00
4637;DHT22;2331;48.806;9.140;2023-03-01T07:55:22;2.60;1.00
4637;DHT22;2331;48.806;9.140;2023-03-01T07:57:49;2.60;1.00
4637;DHT22;2331;48.806;9.140;2023-03-01T08:00:16;2.60;1.00
4637;DHT22;2331;48.806;9.140;2023-03-01T08:02:43;2.60;1.00
4637;DHT22;2331;48.806;9.140;2023-03-01T08:05:11;2.60;1.00
4637;DHT22;2331;48.806;9.140;2023-03-01T08:07:37;2.60;1.00
4637;DHT22;2331;48.806;9.140;2023-03-01T08:10:06;2.70;1.00
4637;DHT22;2331;48.806;9.140;2023-03-01T08:12:33;2.80;1.00
4637;DHT22;2331;48.806;9.140;2023-03-01T08:14:59;2.80;1.00
4637;DHT22;2331;48.806;9.140;2023-03-01T08:17:26;2.90;1.00
4637;DHT22;2331;48.806;9.140;2023-03-01T08:19:53;2.90;1.00
4637;DHT22;2331;48.806;9.140;2023-03-01T08:22:21;3.00;1.00
4637;DHT22;2331;48.806;9.140;2023-03-01T08:24:48;3.00;1.00
4637;DHT22;2331;48.806;9.140;2023-03-01T08:27:16;3.00;1.00
4637;DHT22;2331;48.806;9.140;2023-03-01T08:29:43;3.10;1.00
4637;DHT22;2331;48.806;9.140;2023-03-01T08:32:10;3.10;1.00
4637;DHT22;2331;48.806;9.140;2023-03-01T08:34:36;3.20;1.00
4637;DHT22;2331;48.806;9.140;2023-03-01T08:37:03;3.20;1.00
4637;DHT22;2331;48.806;9.140;2023-03-01T08:39:30;3.30;1.00
4637;DHT22;2331;48.806;9.140;2023-03-01T08:41:57;3.30;1.00
4637;DHT22;2331;48.806;9.140;2023-03-01T08:44:25;3.30;1.00
4637;DHT22;2331;48.806;9.140;2023-03-01T08:46:51;3.20;1.00
4637;DHT22;2331;48.806;9.140;2023-03-01T08:49:20;3.30;1.00
4637;DHT22;2331;48.806;9.140;2023-03-01T08:51:47;3.30;1.00
4637;DHT22;2331;48.806;9.140;2023-03-01T08:54:15;3.30;1.00
4637;DHT22;2331;48.806;9.140;2023-03-01T08:56:42;3.30;1.00
4637;DHT22;2331;48.806;9.140;2023-03-01T08:59:10;3.40;1.00
4637;DHT22;2331;48.806;9.140;2023-03-01T09:01:39;3.50;1.00
4637;DHT22;2331;48.806;9.140;2023-03-01T09:04:08;3.50;1.00
4637;DHT22;2331;48.806;9.140;2023-03-01T09:06:37;3.60;1.00
4637;DHT22;2331;48.806;9.140;2023-03-01T09:09:05;3.70;1.00
4637;DHT22;2331;48.806;9.140;2023-03-01T09:11:34;3.70;1.00
4637;DHT22;2331;48.806;9.140;2023-03-01T09:14:01;3.70;1.00
4637;DHT22;2331;48.806;9.140;2023-03-01T09:16:31;3.70;1.00
4637;DHT22;2331;48.806;9.140;2023-03-01T09:19:02;3.80;1.00
4637;DHT22;2331;48.806;9.140;2023-03-01T09:21:30;3.80;1.00
4637;DHT22;2331;48.806;9.140;2023-03-01T09:23:57;3.90;1.00
4637;DHT22;2331;48.806;9.140;2023-03-01T09:26:24;3.90;1.00
4637;DHT22;2331;48.806;9.140;2023-03-01T09:28:53;4.00;1.00
4637;DHT22;2331;48.806;9.140;2023-03-01T09:31:21;4.10;1.00
4637;DHT22;2331;48.806;9.140;2023-03-01T09:33:49;4.30;1.00
4637;DHT22;2331;48.806;9.140;2023-03-01T09:36:19;4.20;1.00
4637;DHT22;2331;48.806;9.140;2023-03-01T09:38:47;4.30;1.00
4637;DHT22;2331;48.806;9.140;2023-03-01T09:44:10;4.40;1.00
4637;DHT22;2331;48.806;9.140;2023-03-01T09:46:42;4.50;1.00
4637;DHT22;2331;48.806;9.140;2023-03-01T09:49:12;4.50;1.00
4637;DHT22;2331;48.806;9.140;2023-03-01T09:51:49;4.70;1.00
4637;DHT22;2331;48.806;9.140;2023-03-01T09:54:20;4.70;1.00
4637;DHT22;2331;48.806;9.140;2023-03-01T09:56:54;4.80;1.00
4637;DHT22;2331;48.806;9.140;2023-03-01T09:59:26;4.80;1.00
4637;DHT22;2331;48.806;9.140;2023-03-01T10:02:00;4.90;1.00
4637;DHT22;2331;48.806;9.140;2023-03-01T10:04:40;5.00;1.00
4637;DHT22;2331;48.806;9.140;2023-03-01T10:07:20;5.10;1.00
4637;DHT22;2331;48.806;9.140;2023-03-01T10:09:48;5.10;1.00
4637;DHT22;2331;48.806;9.140;2023-03-01T10:12:18;5.20;1.00
4637;DHT22;2331;48.806;9.140;2023-03-01T10:14:53;5.30;1.00
4637;DHT22;2331;48.806;9.140;2023-03-01T10:17:28;5.30;1.00
4637;DHT22;2331;48.806;9.140;2023-03-01T10:19:59;5.30;1.00
4637;DHT22;2331;48.806;9.140;2023-03-01T10:22:38;5.50;1.00
4637;DHT22;2331;48.806;9.140;2023-03-01T10:25:05;5.60;1.00
4637;DHT22;2331;48.806;9.140;2023-03-01T10:27:37;5.70;1.00
4637;DHT22;2331;48.806;9.140;2023-03-01T10:30:13;5.80;1.00
4637;DHT22;2331;48.806;9.140;2023-03-01T10:32:43;5.90;1.00
4637;DHT22;2331;48.806;9.140;2023-03-01T10:35:18;5.90;1.00
4637;DHT22;2331;48.806;9.140;2023-03-01T10:38:04;5.90;1.00
4637;DHT22;2331;48.806;9.140;2023-03-01T10:40:31;6.10;1.00
4637;DHT22;2331;48.806;9.140;2023-03-01T10:42:59;6.20;1.00
4637;DHT22;2331;48.806;9.140;2023-03-01T10:45:35;6.30;1.00
4637;DHT22;2331;48.806;9.140;2023-03-01T10:48:12;6.40;1.00
4637;DHT22;2331;48.806;9.140;2023-03-01T10:50:40;6.50;1.00
4637;DHT22;2331;48.806;9.140;2023-03-01T10:53:21;6.60;1.00
4637;DHT22;2331;48.806;9.140;2023-03-01T10:55:57;6.70;1.00
4637;DHT22;2331;48.806;9.140;2023-03-01T10:58:23;6.90;1.00
4637;DHT22;2331;48.806;9.140;2023-03-01T11:00:52;7.00;1.00
4637;DHT22;2331;48.806;9.140;2023-03-01T11:03:22;7.10;1.00
4637;DHT22;2331;48.806;9.140;2023-03-01T11:05:55;7.20;1.00
4637;DHT22;2331;48.806;9.140;2023-03-01T11:08:33;7.20;1.00
4637;DHT22;2331;48.806;9.140;2023-03-01T11:11:22;7.30;1.00
4637;DHT22;2331;48.806;9.140;2023-03-01T11:13:52;7.40;1.00
4637;DHT22;2331;48.806;9.140;2023-03-01T11:16:34;7.60;1.00
4637;DHT22;2331;48.806;9.140;2023-03-01T11:19:15;7.70;1.00
4637;DHT22;2331;48.806;9.140;2023-03-01T11:21:49;7.80;1.00
4637;DHT22;2331;48.806;9.140;2023-03-01T11:24:19;7.80;1.00
4637;DHT22;2331;48.806;9.140;2023-03-01T11:26:52;7.80;1.00
4637;DHT22;2331;48.806;9.140;2023-03-01T11:29:26;7.90;1.00
4637;DHT22;2331;48.806;9.140;2023-03-01T11:31:57;7.90;1.00
4637;DHT22;2331;48.806;9.140;2023-03-01T11:34:36;8.10;1.00
4637;DHT22;2331;48.806;9.140;2023-03-01T11:37:12;8.20;1.00
4637;DHT22;2331;48.806;9.140;2023-03-01T11:39:49;8.30;1.00
4637;DHT22;2331;48.806;9.140;2023-03-01T11:42:20;8.40;1.00
4637;DHT22;2331;48.806;9.140;2023-03-01T11:44:54;8.50;1.00
4637;DHT22;2331;48.806;9.140;2023-03-01T11:47:33;8.50;1.00
4637;DHT22;2331;48.806;9.140;2023-03-01T11:50:16;8.60;1.00
4637;DHT22;2331;48.806;9.140;2023-03-01T11:53:07;8.60;1.00
4637;DHT22;2331;48.806;9.140;2023-03-01T11:56:02;8.60;1.00
4637;DHT22;2331;48.806;9.140;2023-03-01T11:58:48;8.60;1.00
4637;DHT22;2331;48.806;9.140;2023-03-01T12:01:32;8.60;1.00
4637;DHT22;2331;48.806;9.140;2023-03-01T12:04:32;8.70;1.00
4637;DHT22;2331;48.806;9.140;2023-03-01T12:07:05;8.80;1.00
4637;DHT22;2331;48.806;9.140;2023-03-01T12:09:47;8.90;1.00
4637;DHT22;2331;48.806;9.140;2023-03-01T12:12:29;8.80;1.00
4637;DHT22;2331;48.806;9.140;2023-03-01T12:15:22;8.90;1.00
4637;DHT22;2331;48.806;9.140;2023-03-01T12:18:03;9.00;1.00
4637;DHT22;2331;48.806;9.140;2023-03-01T12:20:34;9.00;1.00
4637;DHT22;2331;48.806;9.140;2023-03-01T12:23:24;9.00;1.00
4637;DHT22;2331;48.806;9.140;2023-03-01T12:25:56;9.20;1.00
4637;DHT22;2331;48.806;9.140;2023-03-01T12:28:49;9.30;1.00
4637;DHT22;2331;48.806;9.140;2023-03-01T12:34:27;9.50;1.00
4637;DHT22;2331;48.806;9.140;2023-03-01T12:37:17;9.60;1.00
4637;DHT22;2331;48.806;9.140;2023-03-01T12:39:53;9.70;1.00
4637;DHT22;2331;48.806;9.140;2023-03-01T12:42:25;9.70;1.00
4637;DHT22;2331;48.806;9.140;2023-03-01T12:45:07;9.90;1.00
4637;DHT22;2331;48.806;9.140;2023-03-01T12:47:56;9.80;1.00
4637;DHT22;2331;48.806;9.140;2023-03-01T12:50:37;9.80;1.00
4637;DHT22;2331;48.806;9.140;2023-03-01T12:53:05;9.90;1.00
4637;DHT22;2331;48.806;9.140;2023-03-01T12:55:34;9.90;1.00
4637;DHT22;2331;48.806;9.140;2023-03-01T12:58:19;9.80;1.00
4637;DHT22;2331;48.806;9.140;2023-03-01T13:01:02;9.90;1.00
4637;DHT22;2331;48.806;9.140;2023-03-01T13:03:38;10.00;1.00
4637;DHT22;2331;48.806;9.140;2023-03-01T13:06:14;10.00;1.00
4637;DHT22;2331;48.806;9.140;2023-03-01T13:08:47;10.10;1.00
4637;DHT22;2331;48.806;9.140;2023-03-01T13:11:17;10.20;1.00
4637;DHT22;2331;48.806;9.140;2023-03-01T13:13:45;10.40;1.00
4637;DHT22;2331;48.806;9.140;2023-03-01T13:16:39;10.40;1.00
4637;DHT22;2331;48.806;9.140;2023-03-01T13:19:12;10.30;1.00
4637;DHT22;2331;48.806;9.140;2023-03-01T13:21:40;10.40;1.00
4637;DHT22;2331;48.806;9.140;2023-03-01T13:24:33;10.40;1.00
4637;DHT22;2331;48.806;9.140;2023-03-01T13:27:21;10.40;1.00
4637;DHT22;2331;48.806;9.140;2023-03-01T13:29:51;10.40;1.00
4637;DHT22;2331;48.806;9.140;2023-03-01T13:32:23;10.40;1.00
4637;DHT22;2331;48.806;9.140;2023-03-01T13:34:59;10.50;1.00
4637;DHT22;2331;48.806;9.140;2023-03-01T13:37:36;10.50;1.00
4637;DHT22;2331;48.806;9.140;2023-03-01T13:43:31;10.40;1.00
4637;DHT22;2331;48.806;9.140;2023-03-01T13:45:58;10.50;1.00
4637;DHT22;2331;48.806;9.140;2023-03-01T13:48:29;10.60;1.00
4637;DHT22;2331;48.806;9.140;2023-03-01T13:50:59;10.60;1.00
4637;DHT22;2331;48.806;9.140;2023-03-01T13:53:30;10.50;1.00
4637;DHT22;2331;48.806;9.140;2023-03-01T13:56:01;10.50;1.00
4637;DHT22;2331;48.806;9.140;2023-03-01T13:58:30;10.60;1.00
4637;DHT22;2331;48.806;9.140;2023-03-01T14:00:59;10.60;1.00
4637;DHT22;2331;48.806;9.140;2023-03-01T14:03:28;10.50;1.00
4637;DHT22;2331;48.806;9.140;2023-03-01T14:06:02;10.60;1.00
4637;DHT22;2331;48.806;9.140;2023-03-01T14:08:32;10.70;1.00
4637;DHT22;2331;48.806;9.140;2023-03-01T14:14:06;10.80;1.00
4637;DHT22;2331;48.806;9.140;2023-03-01T14:16:43;10.80;1.00
4637;DHT22;2331;48.806;9.140;2023-03-01T14:19:18;10.80;1.00
4637;DHT22;2331;48.806;9.140;2023-03-01T14:21:46;10.80;1.00
4637;DHT22;2331;48.806;9.140;2023-03-01T14:24:20;10.80;1.00
4637;DHT22;2331;48.806;9.140;2023-03-01T14:26:47;10.70;1.00
4637;DHT22;2331;48.806;9.140;2023-03-01T14:29:27;10.70;1.00
4637;DHT22;2331;48.806;9.140;2023-03-01T14:31:54;10.70;1.00
4637;DHT22;2331;48.806;9.140;2023-03-01T14:34:24;10.70;1.00
4637;DHT22;2331;48.806;9.140;2023-03-01T14:36:50;10.50;1.00
4637;DHT22;2331;48.806;9.140;2023-03-01T14:39:19;10.50;1.00
4637;DHT22;2331;48.806;9.140;2023-03-01T14:41:46;10.50;1.00
4637;DHT22;2331;48.806;9.140;2023-03-01T14:44:16;10.30;1.00
4637;DHT22;2331;48.806;9.140;2023-03-01T14:46:45;10.20;1.00
4637;DHT22;2331;48.806;9.140;2023-03-01T14:49:14;10.20;1.00
4637;DHT22;2331;48.806;9.140;2023-03-01T14:51:49;10.20;1.00
4637;DHT22;2331;48.806;9.140;2023-03-01T14:54:20;10.10;1.00
4637;DHT22;2331;48.806;9.140;2023-03-01T14:56:47;10.10;1.00
4637;DHT22;2331;48.806;9.140;2023-03-01T14:59:14;9.80;1.00
4637;DHT22;2331;48.806;9.140;2023-03-01T15:01:41;9.70;1.00
4637;DHT22;2331;48.806;9.140;2023-03-01T15:04:12;9.80;1.00
4637;DHT22;2331;48.806;9.140;2023-03-01T15:06:40;9.70;1.00
4637;DHT22;2331;48.806;9.140;2023-03-01T15:09:13;9.50;1.00
4637;DHT22;2331;48.806;9.140;2023-03-01T15:11:42;9.60;1.00
4637;DHT22;2331;48.806;9.140;2023-03-01T15:14:27;9.70;1.00
4637;DHT22;2331;48.806;9.140;2023-03-01T15:16:54;9.70;1.00
4637;DHT22;2331;48.806;9.140;2023-03-01T15:19:23;9.50;1.00
4637;DHT22;2331;48.806;9.140;2023-03-01T15:21:54;9.40;1.00
4637;DHT22;2331;48.806;9.140;2023-03-01T15:24:25;9.40;1.00
4637;DHT22;2331;48.806;9.140;2023-03-01T15:26:58;9.40;1.00
4637;DHT22;2331;48.806;9.140;2023-03-01T15:29:29;9.30;1.00
4637;DHT22;2331;48.806;9.140;2023-03-01T15:32:00;9.30;1.00
4637;DHT22;2331;48.806;9.140;2023-03-01T15:34:30;9.30;1.00
4637;DHT22;2331;48.806;9.140;2023-03-01T15:37:00;9.30;1.00
4637;DHT22;2331;48.806;9.140;2023-03-01T15:39:35;9.30;1.00
4637;DHT22;2331;48.806;9.140;2023-03-01T15:42:05;9.10;1.00
4637;DHT22;2331;48.806;9.140;2023-03-01T15:44:34;9.20;1.00
4637;DHT22;2331;48.806;9.140;2023-03-01T15:47:20;9.20;1.00
4637;DHT22;2331;48.806;9.140;2023-03-01T15:49:53;9.10;1.00
4637;DHT22;2331;48.806;9.140;2023-03-01T15:52:23;9.10;1.00
4637;DHT22;2331;48.806;9.140;2023-03-01T15:54:56;9.10;1.00
4637;DHT22;2331;48.806;9.140;2023-03-01T15:57:23;9.20;1.00
4637;DHT22;2331;48.806;9.140;2023-03-01T15:59:50;9.10;1.00
4637;DHT22;2331;48.806;9.140;2023-03-01T16:02:16;9.10;1.00
4637;DHT22;2331;48.806;9.140;2023-03-01T16:04:46;9.10;1.00
4637;DHT22;2331;48.806;9.140;2023-03-01T16:07:14;9.10;1.00
4637;DHT22;2331;48.806;9.140;2023-03-01T16:09:40;9.10;1.00
4637;DHT22;2331;48.806;9.140;2023-03-01T16:12:14;9.20;1.00
4637;DHT22;2331;48.806;9.140;2023-03-01T16:14:41;9.20;1.00
4637;DHT22;2331;48.806;9.140;2023-03-01T16:17:08;9.10;1.00
4637;DHT22;2331;48.806;9.140;2023-03-01T16:19:35;9.10;1.00
4637;DHT22;2331;48.806;9.140;2023-03-01T16:22:02;9.10;1.00
4637;DHT22;2331;48.806;9.140;2023-03-01T16:24:29;9.00;1.00
4637;DHT22;2331;48.806;9.140;2023-03-01T16:26:56;9.00;1.00
4637;DHT22;2331;48.806;9.140;2023-03-01T16:29:24;9.00;1.00
4637;DHT22;2331;48.806;9.140;2023-03-01T16:31:51;9.10;1.00
4637;DHT22;2331;48.806;9.140;2023-03-01T16:34:18;9.10;1.00
4637;DHT22;2331;48.806;9.140;2023-03-01T16:36:47;9.10;1.00
4637;DHT22;2331;48.806;9.140;2023-03-01T16:39:14;9.00;1.00
4637;DHT22;2331;48.806;9.140;2023-03-01T16:41:41;8.90;1.00
4637;DHT22;2331;48.806;9.140;2023-03-01T16:44:08;8.80;1.00
4637;DHT22;2331;48.806;9.140;2023-03-01T16:46:36;8.80;1.00
4637;DHT22;2331;48.806;9.140;2023-03-01T16:49:03;8.70;1.00
4637;DHT22;2331;48.806;9.140;2023-03-01T16:51:29;8.70;1.00
4637;DHT22;2331;48.806;9.140;2023-03-01T16:53:57;8.70;1.00
4637;DHT22;2331;48.806;9.140;2023-03-01T16:56:24;8.70;1.00
4637;DHT22;2331;48.806;9.140;2023-03-01T16:58:51;8.60;1.00
4637;DHT22;2331;48.806;9.140;2023-03-01T17:01:19;8.60;1.00
4637;DHT22;2331;48.806;9.140;2023-03-01T17:03:50;8.60;1.00